Time;durP1;ratioP1;P1;durP2;ratioP2;P2;SDS_P1;SDS_P2;PMS_P1;PMS_P2;Temp;Humidity;BMP_temperature;BMP_pressure;BME280_temperature;BME280_humidity;BME280_pressure;Samples;Min_cycle;Max_cycle;Signal;HPM_P1;HPM_P2
2024/01/13 00:02:48;;;;;;;16.93;13.83;;;;;;;17.03;38.40;97644.19;10365227;28;20053;-30
2024/01/13 00:07:48;;;;;;;19.63;14.63;;;;;;;17.02;38.11;97637.44;10365064;28;20525;-30
2024/01/13 00:12:49;;;;;;;18.40;14.23;;;;;;;17.08;37.52;97632.50;10365122;28;20609;-30
2024/01/13 00:17:49;;;;;;;17.03;13.13;;;;;;;17.08;37.90;97620.69;10358149;28;20030;-30
2024/01/13 00:22:49;;;;;;;18.97;14.90;;;;;;;17.09;37.39;97609.75;10363910;28;20042;-30
2024/01/13 00:27:50;;;;;;;20.70;15.23;;;;;;;17.11;37.29;97609.78;10365199;28;20045;-30
2024/01/13 00:32:50;;;;;;;20.57;16.27;;;;;;;17.07;37.76;97601.28;10363611;28;20038;-30
2024/01/13 00:37:50;;;;;;;17.53;14.07;;;;;;;17.04;38.05;97588.59;10363803;28;20410;-30
2024/01/13 00:42:51;;;;;;;18.37;14.43;;;;;;;17.06;37.83;97586.09;10356879;28;20026;-30
2024/01/13 00:47:51;;;;;;;16.70;13.53;;;;;;;17.03;38.17;97583.47;10364291;28;20108;-30
2024/01/13 00:52:51;;;;;;;22.33;16.03;;;;;;;17.01;37.90;97580.06;10363544;28;20478;-30
2024/01/13 00:57:52;;;;;;;18.23;14.20;;;;;;;17.02;37.41;97579.25;10362510;28;20449;-30
2024/01/13 01:02:52;;;;;;;17.27;13.67;;;;;;;17.02;37.75;97591.91;10364007;28;20379;-30
2024/01/13 01:07:53;;;;;;;19.13;14.07;;;;;;;17.03;37.66;97591.94;10360921;28;20581;-49
2024/01/13 01:12:53;;;;;;;19.13;14.48;;;;;;;17.02;37.93;97591.91;10365069;28;20030;-30
2024/01/13 01:17:53;;;;;;;18.70;13.90;;;;;;;17.02;37.90;97589.38;10364406;28;20034;-31
2024/01/13 01:22:54;;;;;;;15.50;12.50;;;;;;;16.99;38.10;97585.09;10363663;28;20053;-30
2024/01/13 01:27:54;;;;;;;16.80;12.97;;;;;;;16.92;38.22;97574.84;10364652;28;20099;-30
2024/01/13 01:32:54;;;;;;;19.60;13.63;;;;;;;17.01;37.77;97585.13;10362456;28;20030;-30
2024/01/13 01:37:55;;;;;;;17.43;13.67;;;;;;;16.99;37.83;97586.78;10363364;28;20288;-30
2024/01/13 01:42:55;;;;;;;16.23;12.83;;;;;;;16.98;37.88;97587.63;10364209;28;20029;-30
2024/01/13 01:47:58;;;;;;;17.93;13.80;;;;;;;16.94;37.78;97588.38;10363337;28;20709;-30
2024/01/13 01:52:59;;;;;;;16.08;12.55;;;;;;;16.97;38.12;97578.28;10362567;28;20030;-31
2024/01/13 01:58:01;;;;;;;15.82;13.43;;;;;;;16.92;38.07;97557.13;10364242;28;20454;-30
2024/01/13 02:03:01;;;;;;;15.82;12.27;;;;;;;16.95;38.75;97557.19;10363144;28;20045;-30
2024/01/13 02:08:03;;;;;;;14.52;11.77;;;;;;;16.98;37.63;97549.66;10365117;28;20044;-30
2024/01/13 02:13:04;;;;;;;16.33;12.73;;;;;;;16.94;38.20;97548.75;10371595;28;20030;-31
2024/01/13 02:18:04;;;;;;;18.10;12.60;;;;;;;16.93;38.20;97547.06;10369577;28;20030;-31
2024/01/13 02:23:04;;;;;;;15.18;11.82;;;;;;;16.91;37.77;97533.50;10366714;28;20038;-30
2024/01/13 02:28:05;;;;;;;14.77;11.40;;;;;;;16.91;38.02;97532.66;10370721;28;20116;-30
2024/01/13 02:33:05;;;;;;;16.23;12.17;;;;;;;16.92;37.89;97519.19;10369591;28;20029;-30
2024/01/13 02:38:05;;;;;;;14.23;11.60;;;;;;;16.91;38.29;97509.91;10367635;28;20296;-30
2024/01/13 02:43:06;;;;;;;13.10;10.57;;;;;;;16.93;37.78;97498.13;10369026;28;20038;-29
2024/01/13 02:48:14;;;;;;;14.90;11.63;;;;;;;16.93;37.91;97493.06;10368494;28;20045;-30
2024/01/13 02:53:15;;;;;;;14.25;11.15;;;;;;;16.93;37.83;97467.78;10368009;28;20115;-30
2024/01/13 02:58:15;;;;;;;15.60;12.30;;;;;;;16.89;37.75;97448.34;10367970;28;20458;-30
2024/01/13 03:03:16;;;;;;;14.57;11.60;;;;;;;16.94;37.97;97441.66;10367922;28;20034;-30
2024/01/13 03:08:16;;;;;;;14.63;11.53;;;;;;;16.90;38.16;97439.91;10366521;28;20030;-30
2024/01/13 03:13:16;;;;;;;15.27;11.20;;;;;;;16.90;37.88;97424.75;10368064;28;20025;-31
2024/01/13 03:18:17;;;;;;;13.63;11.03;;;;;;;16.87;37.96;97432.25;10366884;28;20053;-30
2024/01/13 03:23:17;;;;;;;14.13;11.67;;;;;;;16.85;38.45;97428.84;10366608;28;20045;-30
2024/01/13 03:28:17;;;;;;;15.57;11.50;;;;;;;16.83;37.83;97433.03;10367161;28;20034;-31
2024/01/13 03:33:18;;;;;;;15.33;11.37;;;;;;;16.87;37.69;97429.72;10362351;28;20038;-31
2024/01/13 03:38:18;;;;;;;13.63;11.37;;;;;;;16.91;37.33;97428.97;10365312;28;20172;-30
2024/01/13 03:43:18;;;;;;;16.43;10.50;;;;;;;16.95;37.27;97438.31;10366590;28;20038;-30
2024/01/13 03:48:19;;;;;;;12.63;10.60;;;;;;;16.97;37.38;97432.44;10365789;28;20038;-30
2024/01/13 03:53:19;;;;;;;15.13;10.85;;;;;;;16.96;37.85;97434.94;10365082;28;20041;-30
2024/01/13 03:58:22;;;;;;;13.50;10.53;;;;;;;16.99;37.19;97440.06;10364985;28;20038;-30
2024/01/13 04:03:22;;;;;;;14.45;10.77;;;;;;;16.96;37.66;97450.13;10365701;28;20288;-30
2024/01/13 04:08:22;;;;;;;12.37;10.20;;;;;;;16.93;37.76;97453.47;10365123;28;20502;-30
2024/01/13 04:13:24;;;;;;;14.70;11.45;;;;;;;16.88;37.41;97455.06;10364896;28;20065;-30
2024/01/13 04:18:24;;;;;;;14.52;10.52;;;;;;;16.84;37.86;97457.50;10364302;28;20609;-30
2024/01/13 04:23:24;;;;;;;17.30;10.30;;;;;;;16.85;37.85;97471.84;10363012;28;20060;-31
2024/01/13 04:28:25;;;;;;;12.10;10.00;;;;;;;16.84;37.29;97475.22;10363981;28;20037;-31
2024/01/13 04:33:25;;;;;;;12.40;9.43;;;;;;;16.84;37.83;97470.16;10358771;28;20044;-30
2024/01/13 04:38:25;;;;;;;11.83;9.80;;;;;;;16.82;37.39;97456.63;10363727;28;20509;-31
2024/01/13 04:43:26;;;;;;;14.23;10.90;;;;;;;16.83;37.15;97458.34;10363555;28;20042;-30
2024/01/13 04:48:26;;;;;;;13.37;9.90;;;;;;;16.73;37.93;97442.13;10364175;28;20048;-29
2024/01/13 04:53:26;;;;;;;13.38;10.05;;;;;;;16.77;37.46;97446.44;10362242;28;20410;-30
2024/01/13 04:58:27;;;;;;;13.40;10.17;;;;;;;16.81;37.36;97444.81;10363437;28;20104;-30
2024/01/13 05:03:27;;;;;;;12.40;9.73;;;;;;;16.81;37.56;97440.59;10363300;28;20041;-31
2024/01/13 05:08:28;;;;;;;11.40;8.73;;;;;;;16.86;37.46;97443.19;10362779;28;20049;-31
2024/01/13 05:13:28;;;;;;;12.23;9.57;;;;;;;16.86;37.16;97448.25;10362387;28;20050;-30
2024/01/13 05:18:28;;;;;;;11.50;9.53;;;;;;;16.88;37.17;97457.59;10363888;28;20072;-30
2024/01/13 05:23:29;;;;;;;15.53;11.20;;;;;;;16.87;36.36;97457.53;10361781;28;20608;-30
2024/01/13 05:28:29;;;;;;;12.80;9.70;;;;;;;16.82;36.41;97452.41;10362624;28;20292;-30
2024/01/13 05:33:29;;;;;;;11.27;9.25;;;;;;;16.79;36.72;97451.50;10363219;28;20030;-30
2024/01/13 05:38:30;;;;;;;12.80;9.30;;;;;;;16.82;37.04;97454.09;10360753;28;20037;-30
2024/01/13 05:43:30;;;;;;;11.87;10.47;;;;;;;16.81;37.10;97444.81;10363772;28;21053;-30
2024/01/13 05:48:31;;;;;;;16.15;9.73;;;;;;;16.81;37.28;97439.75;10371003;28;22086;-30
2024/01/13 05:53:31;;;;;;;12.00;9.30;;;;;;;16.80;36.87;97445.59;10369113;28;20730;-30
2024/01/13 05:58:32;;;;;;;11.43;9.35;;;;;;;16.80;36.94;97448.13;10369035;28;21123;-30
2024/01/13 06:03:32;;;;;;;12.50;8.52;;;;;;;16.80;37.09;97432.97;10369891;28;20063;-30
2024/01/13 06:08:33;;;;;;;12.35;9.55;;;;;;;16.74;37.04;97412.66;10368792;28;20040;-29
2024/01/13 06:13:33;;;;;;;14.10;9.10;;;;;;;16.79;36.88;97421.16;10368499;28;20760;-30
2024/01/13 06:18:33;;;;;;;11.30;8.90;;;;;;;16.79;37.16;97405.97;10369390;28;20069;-30
2024/01/13 06:23:34;;;;;;;11.13;9.52;;;;;;;16.84;36.57;97401.88;10367533;28;20038;-30
2024/01/13 06:28:35;;;;;;;11.27;9.88;;;;;;;16.85;36.69;97390.91;10368359;28;20038;-30
2024/01/13 06:33:35;;;;;;;12.97;8.63;;;;;;;16.87;36.56;97387.59;10368707;28;20034;-30
2024/01/13 06:38:35;;;;;;;10.00;8.87;;;;;;;16.90;36.06;97399.44;10367643;28;20300;-30
2024/01/13 06:43:36;;;;;;;12.00;9.43;;;;;;;16.90;35.71;97399.44;10367196;28;20046;-30
2024/01/13 06:48:36;;;;;;;12.87;8.90;;;;;;;16.89;35.78;97407.88;10368385;28;20343;-30
2024/01/13 06:53:36;;;;;;;12.03;8.87;;;;;;;16.93;35.83;97414.66;10367174;28;20045;-30
2024/01/13 06:58:39;;;;;;;10.60;8.30;;;;;;;16.92;35.58;97418.03;10367230;28;20042;-30
2024/01/13 07:03:40;;;;;;;9.77;8.55;;;;;;;16.87;35.76;97419.63;10366922;28;20387;-30
2024/01/13 07:08:44;;;;;;;10.68;8.85;;;;;;;16.90;36.29;97429.81;10366286;28;20030;-30
2024/01/13 07:13:45;;;;;;;10.18;8.52;;;;;;;16.92;35.68;97434.03;10366335;28;20026;-30
2024/01/13 07:18:45;;;;;;;14.05;9.70;;;;;;;16.81;35.90;97414.47;10366910;28;20113;-30
2024/01/13 07:23:46;;;;;;;12.27;8.45;;;;;;;16.95;35.64;97428.19;10363240;28;20040;-31
2024/01/13 07:28:46;;;;;;;11.60;8.60;;;;;;;16.95;35.36;97430.72;10365941;28;20837;-29
2024/01/13 07:33:47;;;;;;;11.13;8.87;;;;;;;16.94;35.78;97437.47;10366214;28;20040;-31
2024/01/13 07:38:47;;;;;;;11.52;9.00;;;;;;;16.95;34.68;97430.72;10365955;28;20220;-29
2024/01/13 07:43:50;;;;;;;13.40;9.50;;;;;;;16.95;34.21;97428.19;10364574;28;20466;-31
2024/01/13 07:48:52;;;;;;;12.55;9.85;;;;;;;16.97;33.54;97439.16;10364672;28;20046;-29
2024/01/13 07:53:52;;;;;;;17.05;10.82;;;;;;;16.99;34.59;97429.97;10364441;28;20108;-30
2024/01/13 07:58:52;;;;;;;11.30;9.43;;;;;;;16.95;33.91;97428.19;10364262;28;20029;-31
2024/01/13 08:03:53;;;;;;;13.07;9.50;;;;;;;16.94;34.62;97441.66;10365137;28;20220;-30
2024/01/13 08:08:53;;;;;;;12.00;9.43;;;;;;;16.90;34.21;97443.28;10364171;28;20044;-31
2024/01/13 08:13:53;;;;;;;11.43;9.23;;;;;;;16.89;34.48;97435.69;10363495;28;20032;-31
2024/01/13 08:18:54;;;;;;;13.47;9.77;;;;;;;16.87;33.85;97424.66;10364379;28;20291;-31
2024/01/13 08:23:54;;;;;;;10.87;8.77;;;;;;;16.90;34.63;97414.63;10364295;28;20064;-29
2024/01/13 08:28:54;;;;;;;12.90;9.87;;;;;;;16.94;34.13;97422.28;10363648;28;20464;-31
2024/01/13 08:33:55;;;;;;;12.90;10.00;;;;;;;16.92;34.40;97412.97;10362181;28;20046;-31
2024/01/13 08:38:55;;;;;;;10.43;8.17;;;;;;;16.81;34.69;97392.53;10364112;28;20064;-30
2024/01/13 08:43:55;;;;;;;11.57;8.80;;;;;;;16.90;34.14;97404.50;10364187;28;20047;-30
2024/01/13 08:48:56;;;;;;;12.03;9.83;;;;;;;16.86;34.90;97398.53;10361571;28;20018;-30
2024/01/13 08:53:56;;;;;;;12.23;9.55;;;;;;;16.81;34.15;97389.19;10363813;28;20292;-30
2024/01/13 08:58:57;;;;;;;12.00;10.07;;;;;;;16.86;34.15;97382.50;10362687;28;20034;-30
2024/01/13 09:03:57;;;;;;;13.47;10.30;;;;;;;16.82;34.07;97390.88;10362563;28;20045;-30
2024/01/13 09:08:58;;;;;;;12.43;9.90;;;;;;;16.83;34.33;97387.53;10360568;28;20034;-33
2024/01/13 09:13:58;;;;;;;12.33;10.03;;;;;;;16.82;34.59;97390.88;10356626;28;20798;-30
2024/01/13 09:18:58;;;;;;;14.13;9.47;;;;;;;16.77;34.96;97379.00;10364916;28;20112;-30
2024/01/13 09:24:01;;;;;;;12.70;9.93;;;;;;;16.75;34.91;97366.31;10371007;28;20044;-30
2024/01/13 09:29:02;;;;;;;12.57;10.07;;;;;;;16.71;34.74;97367.06;10370422;28;20034;-30
2024/01/13 09:34:07;;;;;;;12.82;10.23;;;;;;;16.74;34.60;97374.72;10370887;28;20121;-30
2024/01/13 09:39:14;;;;;;;13.40;9.90;;;;;;;16.78;33.68;97384.91;10370571;28;20048;-29
2024/01/13 09:44:21;;;;;;;12.15;9.07;;;;;;;16.84;33.82;97415.34;10370149;28;20033;-30
2024/01/13 09:49:24;;;;;;;12.10;9.25;;;;;;;16.80;33.65;97388.31;10369029;28;20029;-31
2024/01/13 09:54:26;;;;;;;13.18;9.23;;;;;;;16.81;34.27;97400.13;10370292;28;20033;-30
2024/01/13 09:59:28;;;;;;;11.43;9.02;;;;;;;16.81;34.54;97406.88;10369779;28;20045;-32
2024/01/13 10:04:31;;;;;;;12.63;9.63;;;;;;;16.80;34.40;97418.66;10368513;28;20048;-31
2024/01/13 10:09:31;;;;;;;12.52;8.85;;;;;;;16.77;34.59;97421.97;10369900;28;20053;-30
2024/01/13 10:14:33;;;;;;;19.43;13.17;;;;;;;16.18;32.63;97408.16;10368357;28;20053;-31
2024/01/13 10:19:41;;;;;;;16.05;12.32;;;;;;;16.27;33.85;97398.25;10367483;28;20040;-30
2024/01/13 10:24:42;;;;;;;15.02;10.68;;;;;;;16.48;34.62;97393.63;10365525;28;20065;-29
2024/01/13 10:29:45;;;;;;;15.23;11.07;;;;;;;16.59;34.17;97384.56;10365741;28;20022;-30
2024/01/13 10:34:46;;;;;;;16.00;11.05;;;;;;;16.58;34.42;97370.22;10365256;28;20029;-30
2024/01/13 10:39:48;;;;;;;14.85;10.68;;;;;;;16.61;34.30;97367.75;10365553;28;20042;-31
2024/01/13 10:44:57;;;;;;;12.93;10.48;;;;;;;16.66;33.68;97368.69;10363106;28;20417;-30
2024/01/13 10:49:58;;;;;;;12.75;9.77;;;;;;;16.67;34.22;97369.53;10354809;28;20033;-31
2024/01/13 10:55:03;;;;;;;14.50;10.95;;;;;;;16.72;34.00;97348.56;10357257;28;20172;-30
2024/01/13 11:00:06;;;;;;;16.42;12.45;;;;;;;16.77;33.94;97324.19;10359729;28;20386;-30
2024/01/13 11:05:08;;;;;;;17.42;11.75;;;;;;;16.79;34.30;97302.31;10362117;28;20096;-30
2024/01/13 11:10:14;;;;;;;15.40;11.50;;;;;;;16.72;35.46;97287.91;10357034;28;20026;-30
2024/01/13 11:15:24;;;;;;;23.13;12.85;;;;;;;16.74;36.19;97291.28;10363784;28;20043;-30
2024/01/13 11:20:26;;;;;;;15.60;11.95;;;;;;;16.81;35.20;97285.50;10325896;28;1068100;-30
2024/01/13 11:25:28;;;;;;;16.63;11.75;;;;;;;16.80;36.27;97266.06;10362503;28;20033;-29
2024/01/13 11:30:28;;;;;;;15.93;11.98;;;;;;;16.82;37.56;97269.50;10363569;28;20047;-31
2024/01/13 11:35:29;;;;;;;26.17;15.00;;;;;;;16.74;35.07;97248.31;10361822;28;20042;-29
2024/01/13 11:40:30;;;;;;;18.23;12.73;;;;;;;16.80;36.66;97253.44;10365727;28;20501;-30
2024/01/13 11:45:35;;;;;;;18.02;12.30;;;;;;;16.83;37.14;97253.50;10365892;28;20449;-31
2024/01/13 11:50:35;;;;;;;14.63;10.68;;;;;;;16.81;38.79;97262.75;10364564;28;20398;-30
2024/01/13 11:55:36;;;;;;;15.30;11.75;;;;;;;16.79;39.61;97264.38;10367182;28;20034;-30
2024/01/13 12:00:36;;;;;;;18.10;10.60;;;;;;;16.79;40.41;97254.25;10365139;28;20123;-31
2024/01/13 12:05:36;;;;;;;12.93;10.20;;;;;;;16.81;38.84;97252.63;10364817;28;20034;-30
2024/01/13 12:10:43;;;;;;;13.20;10.13;;;;;;;16.76;40.64;97239.06;10365206;28;20497;-30
2024/01/13 12:15:47;;;;;;;13.10;9.20;;;;;;;16.80;40.16;97245.84;10363444;28;20025;-30
2024/01/13 12:20:50;;;;;;;14.35;10.45;;;;;;;16.79;39.95;97237.44;10361537;28;20501;-29
2024/01/13 12:25:51;;;;;;;12.02;9.75;;;;;;;16.87;38.35;97237.53;10360864;28;20124;-30
2024/01/13 12:30:54;;;;;;;13.77;10.05;;;;;;;16.97;38.77;97219.13;10363640;28;20034;-29
2024/01/13 12:36:03;;;;;;;15.68;9.73;;;;;;;17.03;35.10;97211.63;10357145;28;20026;-30
2024/01/13 12:41:04;;;;;;;16.75;11.93;;;;;;;17.07;35.21;97191.44;10364700;28;20478;-29
2024/01/13 12:46:05;;;;;;;16.67;10.68;;;;;;;17.11;34.67;97156.91;10363377;28;20037;-30
2024/01/13 12:51:11;;;;;;;14.15;10.77;;;;;;;17.13;35.54;97137.53;10362230;28;21260;-30
2024/01/13 12:56:13;;;;;;;15.63;11.87;;;;;;;17.02;36.34;97106.22;10361762;28;20077;-30
2024/01/13 13:01:14;;;;;;;15.75;9.98;;;;;;;17.11;37.25;97096.19;10363774;28;20091;-30
2024/01/13 13:06:14;;;;;;;14.23;10.23;;;;;;;17.10;35.91;97114.75;10362206;28;20026;-32
2024/01/13 13:11:14;;;;;;;12.88;9.65;;;;;;;17.12;35.73;97123.19;10362262;28;20034;-30
2024/01/13 13:16:16;;;;;;;18.67;10.43;;;;;;;17.10;35.78;97134.97;10362432;28;20038;-30
2024/01/13 13:21:18;;;;;;;16.58;11.68;;;;;;;17.12;34.85;97144.28;10362244;28;20048;-30
2024/01/13 13:26:18;;;;;;;15.10;10.77;;;;;;;17.11;34.13;97145.13;10363879;28;20045;-30
2024/01/13 13:31:18;;;;;;;14.37;11.17;;;;;;;17.12;35.90;97143.44;10360233;28;20528;-32
2024/01/13 13:36:19;;;;;;;14.87;10.23;;;;;;;17.08;36.86;97131.59;10362129;28;20483;-30
2024/01/13 13:41:19;;;;;;;14.20;10.15;;;;;;;17.19;35.76;97124.97;10361464;28;20064;-31
2024/01/13 13:46:19;;;;;;;18.73;13.50;;;;;;;16.77;34.66;97099.16;10357833;28;20409;-30
2024/01/13 13:51:22;;;;;;;15.97;10.60;;;;;;;16.95;36.46;97099.38;10356509;28;20037;-30
2024/01/13 13:56:23;;;;;;;18.38;11.23;;;;;;;16.99;37.05;97096.06;10361014;28;20482;-31
2024/01/13 14:01:23;;;;;;;15.32;9.75;;;;;;;16.95;36.78;97099.38;10360798;28;20037;-30
2024/01/13 14:06:24;;;;;;;13.35;8.98;;;;;;;16.96;37.00;97116.25;10367199;28;20033;-32
2024/01/13 14:11:24;;;;;;;13.93;9.38;;;;;;;16.92;36.44;97107.78;10369922;28;20098;-29
2024/01/13 14:16:25;;;;;;;14.07;9.87;;;;;;;16.93;36.53;97090.94;10368144;28;20055;-30
2024/01/13 14:21:25;;;;;;;12.95;8.80;;;;;;;16.91;36.67;97088.38;10367818;28;20034;-30
2024/01/13 14:26:25;;;;;;;11.53;9.20;;;;;;;16.94;36.78;97077.47;10369411;28;20049;-29
2024/01/13 14:31:26;;;;;;;11.20;8.90;;;;;;;16.93;36.47;97065.66;10367949;28;20688;-31
2024/01/13 14:36:27;;;;;;;13.40;9.13;;;;;;;16.95;36.62;97064.84;10368132;28;20379;-30
2024/01/13 14:41:27;;;;;;;14.88;9.02;;;;;;;16.86;36.33;97063.88;10366323;28;20034;-31
2024/01/13 14:46:28;;;;;;;13.88;9.80;;;;;;;16.95;37.85;97051.31;10368897;28;20055;-31
2024/01/13 14:51:28;;;;;;;11.00;8.70;;;;;;;16.97;37.09;97047.13;10366264;28;20112;-30
2024/01/13 14:56:28;;;;;;;12.37;7.73;;;;;;;16.98;38.45;97029.44;10368890;28;20026;-29
2024/01/13 15:01:29;;;;;;;11.95;8.75;;;;;;;17.07;37.35;97026.19;10366978;28;20030;-30
2024/01/13 15:06:30;;;;;;;13.90;8.63;;;;;;;17.04;39.09;97013.47;10367595;28;20091;-30
2024/01/13 15:11:30;;;;;;;10.60;8.43;;;;;;;17.01;37.94;97024.44;10367989;28;20093;-31
2024/01/13 15:16:30;;;;;;;10.02;7.47;;;;;;;16.99;38.59;97027.78;10365565;28;20429;-30
2024/01/13 15:21:31;;;;;;;13.83;9.30;;;;;;;16.99;37.72;97031.16;10366303;28;20691;-30
2024/01/13 15:26:31;;;;;;;12.60;10.18;;;;;;;16.86;36.52;97031.00;10367285;28;20486;-30
2024/01/13 15:31:33;;;;;;;13.77;10.73;;;;;;;16.91;37.10;97026.84;10366041;28;20831;-30
2024/01/13 15:36:34;;;;;;;11.77;8.38;;;;;;;16.91;38.63;97035.28;10365491;28;20053;-30
2024/01/13 15:41:34;;;;;;;13.50;8.70;;;;;;;16.93;37.42;97035.31;10365680;28;20034;-30
2024/01/13 15:46:35;;;;;;;12.77;9.73;;;;;;;16.93;37.10;97038.69;10365877;28;20517;-30
2024/01/13 15:51:36;;;;;;;11.27;9.82;;;;;;;16.92;37.63;97048.78;10365271;28;20288;-30
2024/01/13 15:56:37;;;;;;;10.10;7.68;;;;;;;16.87;37.91;97047.88;10366193;28;20033;-31
2024/01/13 16:01:37;;;;;;;10.88;9.38;;;;;;;16.88;37.43;97049.56;10352703;28;20458;-31
2024/01/13 16:06:38;;;;;;;13.47;8.33;;;;;;;16.76;38.09;97026.69;10360303;28;20092;-30
2024/01/13 16:11:38;;;;;;;10.47;8.30;;;;;;;16.88;38.40;97042.84;10359034;28;20060;-30
2024/01/13 16:16:39;;;;;;;10.98;8.57;;;;;;;16.88;38.58;97044.50;10360077;28;20061;-31
2024/01/13 16:21:41;;;;;;;9.70;8.37;;;;;;;16.96;38.81;97043.78;10358062;28;20033;-29
2024/01/13 16:26:48;;;;;;;12.68;9.07;;;;;;;16.91;38.17;97042.03;10361231;28;20273;-30
2024/01/13 16:31:49;;;;;;;11.18;8.50;;;;;;;16.97;38.71;97039.53;10360824;28;20045;-30
2024/01/13 16:36:49;;;;;;;11.40;8.18;;;;;;;16.95;38.25;97034.50;10356814;28;20399;-30
2024/01/13 16:41:49;;;;;;;12.03;8.97;;;;;;;16.95;38.19;97028.56;10356714;28;20413;-32
2024/01/13 16:46:50;;;;;;;11.07;8.07;;;;;;;16.97;37.29;97031.94;10358437;28;20232;-30
2024/01/13 16:51:50;;;;;;;12.50;9.30;;;;;;;16.97;37.15;97024.38;10359338;28;20042;-30
2024/01/13 16:56:53;;;;;;;12.57;10.10;;;;;;;17.01;36.21;97023.59;10359604;28;20410;-31
2024/01/13 17:01:53;;;;;;;12.48;9.27;;;;;;;17.00;36.47;97024.41;10359211;28;20045;-31
2024/01/13 17:06:53;;;;;;;12.50;8.60;;;;;;;16.92;37.06;97015.91;10360609;28;20041;-30
2024/01/13 17:11:55;;;;;;;11.20;8.27;;;;;;;16.85;38.73;97006.53;10359089;28;20026;-30
2024/01/13 17:16:59;;;;;;;11.10;9.15;;;;;;;16.83;36.32;96993.06;10359826;28;20030;-30
2024/01/13 17:22:00;;;;;;;13.05;8.77;;;;;;;16.89;37.90;96990.59;10361303;28;20038;-29
2024/01/13 17:27:00;;;;;;;12.27;9.77;;;;;;;16.89;37.68;96976.25;10360286;28;20058;-31
2024/01/13 17:32:01;;;;;;;29.30;15.90;;;;;;;16.37;33.90;96970.59;10360606;28;20222;-31
2024/01/13 17:37:01;;;;;;;13.80;10.03;;;;;;;16.62;38.14;96976.78;10361250;28;20404;-30
2024/01/13 17:42:01;;;;;;;12.50;8.80;;;;;;;16.67;39.39;96966.72;10368534;28;20085;-30
2024/01/13 17:47:02;;;;;;;13.52;9.75;;;;;;;16.70;39.09;96976.03;10369962;28;20428;-31
2024/01/13 17:52:04;;;;;;;15.52;9.77;;;;;;;16.73;39.06;96961.75;10369812;28;20441;-31
2024/01/13 17:57:04;;;;;;;13.25;8.85;;;;;;;16.74;38.72;96967.66;10370934;28;20111;-30
2024/01/13 18:02:04;;;;;;;12.65;9.63;;;;;;;16.77;38.12;96960.09;10369268;28;20038;-30
2024/01/13 18:07:05;;;;;;;12.23;9.33;;;;;;;16.77;37.81;96962.63;10368918;28;20130;-30
2024/01/13 18:12:05;;;;;;;10.97;9.10;;;;;;;16.79;37.95;96960.97;10369537;28;20360;-29
2024/01/13 18:17:07;;;;;;;13.35;9.00;;;;;;;16.65;37.45;96937.25;10369265;28;20041;-30
2024/01/13 18:22:07;;;;;;;11.88;9.10;;;;;;;16.78;36.95;96950.00;10368553;28;20057;-30
2024/01/13 18:27:08;;;;;;;10.67;8.10;;;;;;;16.83;36.74;96947.53;10369660;28;20188;-30
2024/01/13 18:32:08;;;;;;;11.45;8.68;;;;;;;16.85;37.07;96931.56;10369283;28;20288;-31
2024/01/13 18:37:09;;;;;;;10.50;9.23;;;;;;;16.85;36.32;96940.81;10368374;28;20125;-31
2024/01/13 18:42:10;;;;;;;11.32;9.10;;;;;;;16.88;35.94;96931.56;10368584;28;20037;-31
2024/01/13 18:47:11;;;;;;;12.18;9.85;;;;;;;16.89;35.43;96929.91;10368021;28;20430;-30
2024/01/13 18:52:11;;;;;;;13.77;9.73;;;;;;;16.90;35.42;96931.59;10367457;28;20336;-30
2024/01/13 18:57:11;;;;;;;12.03;9.57;;;;;;;16.85;35.36;96933.22;10367585;28;20421;-30
2024/01/13 19:02:12;;;;;;;11.30;9.40;;;;;;;16.82;35.92;96938.25;10366964;28;20461;-29
2024/01/13 19:07:12;;;;;;;12.20;9.80;;;;;;;16.76;36.05;96945.78;10366886;28;20045;-29
2024/01/13 19:12:12;;;;;;;13.30;10.23;;;;;;;16.80;35.79;96955.06;10366999;28;20065;-31
2024/01/13 19:17:13;;;;;;;12.67;9.20;;;;;;;16.77;36.62;96950.00;10366706;28;20784;-30
2024/01/13 19:22:13;;;;;;;13.55;10.63;;;;;;;16.81;35.56;96955.09;10365916;28;20521;-30
2024/01/13 19:27:14;;;;;;;10.43;8.75;;;;;;;16.83;35.70;96962.72;10366911;28;20076;-31
2024/01/13 19:32:14;;;;;;;12.27;9.47;;;;;;;16.87;35.85;96956.81;10365639;28;20038;-30
2024/01/13 19:37:14;;;;;;;11.00;9.00;;;;;;;16.83;36.45;96967.75;10366023;28;20038;-30
2024/01/13 19:42:16;;;;;;;12.63;9.67;;;;;;;16.85;35.95;96971.16;10366600;28;20044;-30
2024/01/13 19:47:16;;;;;;;10.90;9.15;;;;;;;16.79;35.99;96961.81;10364921;28;20029;-30
2024/01/13 19:52:17;;;;;;;12.15;9.02;;;;;;;16.73;36.13;96945.75;10364667;28;20035;-31
2024/01/13 19:57:17;;;;;;;9.88;8.52;;;;;;;16.78;35.98;96954.22;10365509;28;20550;-30
2024/01/13 20:02:18;;;;;;;11.63;9.03;;;;;;;16.78;34.92;96944.09;10364439;28;20041;-31
2024/01/13 20:07:18;;;;;;;11.27;9.17;;;;;;;16.84;35.09;96936.59;10365343;28;20300;-31
2024/01/13 20:12:18;;;;;;;10.98;8.80;;;;;;;16.84;35.19;96926.47;10364839;28;20294;-31
2024/01/13 20:17:19;;;;;;;12.60;9.50;;;;;;;16.80;35.41;96914.63;10365028;28;20034;-30
2024/01/13 20:22:19;;;;;;;10.88;9.18;;;;;;;16.82;35.48;96905.38;10363561;28;20045;-30
2024/01/13 20:27:20;;;;;;;12.17;9.00;;;;;;;16.82;35.76;96900.34;10364141;28;20034;-30
2024/01/13 20:32:20;;;;;;;11.47;9.30;;;;;;;16.73;34.90;96875.78;10362959;28;20041;-30
2024/01/13 20:37:20;;;;;;;18.67;12.63;;;;;;;16.34;34.15;96874.53;10357396;28;20300;-30
2024/01/13 20:42:21;;;;;;;12.97;9.57;;;;;;;16.66;35.90;96873.22;10359071;28;20046;-30
2024/01/13 20:47:22;;;;;;;15.27;9.45;;;;;;;16.60;37.62;96852.91;10364802;28;20288;-32
2024/01/13 20:52:23;;;;;;;14.35;8.60;;;;;;;16.64;36.29;96836.97;10362141;28;20644;-31
2024/01/13 20:57:24;;;;;;;11.30;9.55;;;;;;;16.70;37.09;96839.53;10364144;28;20046;-30
2024/01/13 21:02:25;;;;;;;13.35;9.15;;;;;;;16.77;36.94;96831.16;10363086;28;20402;-30
2024/01/13 21:07:25;;;;;;;13.48;9.75;;;;;;;16.68;36.75;96820.97;10358422;28;20490;-30
2024/01/13 21:12:27;;;;;;;14.85;8.90;;;;;;;16.79;36.81;96839.59;10361473;28;20112;-30
2024/01/13 21:17:27;;;;;;;9.90;8.35;;;;;;;16.77;37.26;96856.44;10367147;28;20034;-30
2024/01/13 21:22:27;;;;;;;13.70;9.23;;;;;;;16.79;36.56;96860.69;10362562;28;20513;-31
2024/01/13 21:27:28;;;;;;;12.87;9.53;;;;;;;16.78;35.81;96870.78;10366345;28;20788;-31
2024/01/13 21:32:28;;;;;;;11.03;8.77;;;;;;;16.79;35.81;96875.84;10365508;28;20533;-32
2024/01/13 21:37:32;;;;;;;13.03;9.67;;;;;;;16.78;35.72;96888.47;10366182;28;20053;-31
2024/01/13 21:42:32;;;;;;;13.40;10.15;;;;;;;16.80;35.31;96885.13;10366846;28;20324;-31
2024/01/13 21:47:32;;;;;;;12.20;9.17;;;;;;;16.81;35.52;96888.53;10367020;28;20056;-32
2024/01/13 21:52:33;;;;;;;10.97;9.03;;;;;;;16.76;35.52;96874.97;10364646;28;20421;-35
2024/01/13 21:57:36;;;;;;;11.93;10.00;;;;;;;16.79;35.35;96882.59;10366985;28;20486;-31
2024/01/13 22:02:36;;;;;;;13.15;9.98;;;;;;;16.77;34.92;96872.47;10365479;28;20065;-31
2024/01/13 22:07:37;;;;;;;10.73;8.80;;;;;;;16.76;34.82;96869.94;10365454;28;20046;-32
2024/01/13 22:12:37;;;;;;;13.02;9.35;;;;;;;16.75;35.05;96864.00;10365370;28;20551;-32
2024/01/13 22:17:37;;;;;;;12.60;9.37;;;;;;;16.74;34.80;96844.63;10363766;28;20413;-32
2024/01/13 22:22:38;;;;;;;13.87;9.50;;;;;;;16.75;35.03;96840.44;10361158;28;20034;-31
2024/01/13 22:27:38;;;;;;;13.60;9.60;;;;;;;16.72;35.46;96839.56;10364484;28;20037;-32
2024/01/13 22:32:38;;;;;;;11.77;8.30;;;;;;;16.68;35.77;96833.63;10363793;28;20855;-33
2024/01/13 22:37:39;;;;;;;15.37;10.00;;;;;;;16.67;35.83;96826.88;10366666;28;20296;-31
2024/01/13 22:42:39;;;;;;;10.37;8.77;;;;;;;16.64;39.20;96819.28;10367627;28;20045;-32
2024/01/13 22:47:40;;;;;;;10.43;7.88;;;;;;;16.74;38.57;96809.22;10367799;28;20315;-28
2024/01/13 22:52:40;;;;;;;10.50;8.00;;;;;;;16.73;38.12;96804.19;10365816;28;20261;-29
2024/01/13 22:57:40;;;;;;;12.67;9.70;;;;;;;16.73;37.74;96797.44;10367953;28;20045;-29